Time;durP1;ratioP1;P1;durP2;ratioP2;P2;SDS_P1;SDS_P2;PMS_P1;PMS_P2;Temp;Humidity;BMP_temperature;BMP_pressure;BME280_temperature;BME280_humidity;BME280_pressure;Samples;Min_cycle;Max_cycle;Signal;HPM_P1;HPM_P2
2021/10/31 00:02:35;;;;;;;19.70;9.93;;;;;;;10.95;51.82;100010.48;2194160;80;32837;-62
2021/10/31 00:05:37;;;;;;;16.23;10.10;;;;;;;10.98;51.80;100006.30;2201679;80;29750;-64
2021/10/31 00:08:39;;;;;;;16.87;9.75;;;;;;;11.01;51.75;100003.45;2201585;80;27671;-62
2021/10/31 00:11:40;;;;;;;13.90;10.08;;;;;;;11.05;51.74;100006.81;2201545;80;29035;-62
2021/10/31 00:14:42;;;;;;;14.95;9.13;;;;;;;11.10;51.68;100014.98;2201804;80;31006;-64
2021/10/31 00:17:44;;;;;;;18.17;10.82;;;;;;;11.11;51.68;100018.55;2201192;80;34325;-62
2021/10/31 00:20:46;;;;;;;17.20;9.75;;;;;;;11.10;51.67;100025.70;2201275;80;29364;-62
2021/10/31 00:23:49;;;;;;;14.50;9.15;;;;;;;11.08;51.70;100026.76;2179552;79;27682;-61
2021/10/31 00:26:51;;;;;;;14.20;9.85;;;;;;;11.06;51.72;100018.81;2157730;81;28032;-62
2021/10/31 00:29:53;;;;;;;16.42;10.30;;;;;;;11.07;51.75;100025.03;2192194;80;32247;-62
2021/10/31 00:32:54;;;;;;;14.87;9.58;;;;;;;11.06;51.73;100028.20;2201843;80;33398;-62
2021/10/31 00:35:56;;;;;;;16.10;10.18;;;;;;;11.06;51.77;100025.52;2201550;80;29704;-62
2021/10/31 00:38:58;;;;;;;16.95;10.05;;;;;;;11.05;51.74;100032.28;2202156;79;28279;-61
2021/10/31 00:42:00;;;;;;;14.30;10.05;;;;;;;11.06;51.74;100035.36;2201735;80;29664;-60
2021/10/31 00:45:02;;;;;;;16.60;10.23;;;;;;;11.05;51.74;100033.63;2201882;80;31350;-61
2021/10/31 00:48:04;;;;;;;16.93;9.53;;;;;;;11.04;51.71;100027.88;2201937;80;33684;-61
2021/10/31 00:51:07;;;;;;;15.58;9.83;;;;;;;11.03;51.68;100027.02;2201714;79;30483;-61
2021/10/31 00:54:09;;;;;;;12.93;8.78;;;;;;;11.02;51.70;100026.63;2204254;80;27960;-62
2021/10/31 00:57:12;;;;;;;14.45;9.53;;;;;;;11.00;51.72;100023.17;2204106;80;29876;-61
2021/10/31 01:00:15;;;;;;;16.77;9.70;;;;;;;11.01;51.70;100045.46;2203385;80;31766;-60
2021/10/31 01:03:17;;;;;;;19.07;12.18;;;;;;;11.01;51.73;100061.55;2216122;80;33865;-61
2021/10/31 01:06:59;;;;;;;20.35;11.97;;;;;;;10.98;51.71;100051.87;2235654;79;30417;-62
2021/10/31 01:10:21;;;;;;;26.50;11.95;;;;;;;10.93;51.70;100048.11;2200457;80;27544;-62
2021/10/31 01:13:51;;;;;;;14.83;10.63;;;;;;;10.84;51.75;100042.39;2209078;80;28656;-60
2021/10/31 01:17:37;;;;;;;18.42;10.43;;;;;;;10.73;51.84;100038.50;2208659;80;31358;-61
2021/10/31 01:20:47;;;;;;;16.48;11.22;;;;;;;10.60;51.92;100049.00;2209077;80;33007;-64
2021/10/31 01:24:11;;;;;;;15.85;10.80;;;;;;;10.46;52.12;100045.72;2209006;80;30238;-64
2021/10/31 01:27:58;;;;;;;14.60;10.80;;;;;;;10.40;52.23;100051.42;2206203;80;28194;-61
2021/10/31 01:31:46;;;;;;;19.90;10.80;;;;;;;10.36;52.36;100055.62;2208910;80;29231;-63
2021/10/31 01:35:12;;;;;;;17.45;10.93;;;;;;;10.27;52.44;100067.22;2209371;80;31136;-63
2021/10/31 01:38:46;;;;;;;17.35;11.38;;;;;;;10.17;52.59;100058.80;2194279;80;33496;-63
2021/10/31 01:42:05;;;;;;;17.42;11.38;;;;;;;10.08;52.85;100057.07;2184412;81;30397;-64
2021/10/31 01:45:25;;;;;;;20.48;11.85;;;;;;;9.94;53.02;100053.75;2218639;80;27653;-63
2021/10/31 01:48:56;;;;;;;14.55;10.95;;;;;;;9.84;53.13;100054.72;2203354;80;29279;-63
2021/10/31 01:52:04;;;;;;;17.35;11.38;;;;;;;9.78;53.29;100052.34;2203752;80;31104;-63
2021/10/31 01:55:09;;;;;;;19.42;11.28;;;;;;;9.74;53.45;100052.98;2219462;80;32957;-63
2021/10/31 01:58:14;;;;;;;19.25;10.88;;;;;;;9.69;53.46;100042.97;2217533;80;29372;-64
2021/10/31 02:01:16;;;;;;;18.42;11.25;;;;;;;9.64;53.69;100045.88;2219758;80;27606;-64
2021/10/31 02:04:20;;;;;;;14.30;9.98;;;;;;;9.61;53.67;100047.82;2219193;80;29874;-63
2021/10/31 02:07:25;;;;;;;15.98;10.38;;;;;;;9.58;53.83;100045.73;2219471;80;31309;-64
2021/10/31 02:10:26;;;;;;;;;;;;;;;9.55;53.98;100054.34;2222028;80;33178;-63
2021/10/31 02:13:30;;;;;;;16.05;9.88;;;;;;;9.53;54.13;100063.80;2217187;79;28822;-63
2021/10/31 02:16:36;;;;;;;20.55;10.23;;;;;;;9.50;54.26;100063.09;2220066;80;27662;-63
2021/10/31 02:19:43;;;;;;;16.35;10.78;;;;;;;9.44;54.56;100053.53;2189239;80;29000;-64
2021/10/31 02:23:02;;;;;;;13.95;10.55;;;;;;;9.43;54.74;100052.69;2223311;79;32083;-65
2021/10/31 02:26:04;;;;;;;19.90;11.28;;;;;;;9.45;55.00;100055.27;2226498;79;32730;-65
2021/10/31 02:29:08;;;;;;;16.42;10.58;;;;;;;9.51;54.99;100071.02;2203576;80;30210;-64
2021/10/31 02:32:10;;;;;;;17.55;10.75;;;;;;;9.52;55.00;100054.49;2208517;80;27643;-64
2021/10/31 02:35:13;;;;;;;16.25;10.88;;;;;;;9.52;55.09;100062.52;2208282;80;28681;-64
2021/10/31 02:38:17;;;;;;;15.70;10.63;;;;;;;9.50;55.05;100056.41;2219057;79;31042;-64
2021/10/31 02:41:19;;;;;;;19.02;12.90;;;;;;;9.48;55.16;100060.47;2208345;80;34082;-65
2021/10/31 02:44:21;;;;;;;16.40;11.48;;;;;;;9.47;55.25;100071.25;2213088;79;29708;-64
2021/10/31 02:47:55;;;;;;;20.85;11.90;;;;;;;9.46;55.29;100065.02;2210527;80;27641;-62
2021/10/31 02:51:04;;;;;;;19.50;12.88;;;;;;;9.47;55.42;100069.92;2210693;80;28720;-63
2021/10/31 02:54:32;;;;;;;16.80;12.90;;;;;;;9.47;55.45;100069.92;2202237;80;31799;-63
2021/10/31 02:57:58;;;;;;;22.82;13.00;;;;;;;9.45;55.53;100063.77;2208576;80;33324;-64
2021/10/31 03:01:03;;;;;;;18.57;12.47;;;;;;;9.42;55.54;100075.02;2205553;80;29164;-62
2021/10/31 03:04:05;;;;;;;;;;;;;;;9.40;55.63;100073.36;2225374;79;27847;-63
2021/10/31 03:07:06;;;;;;;17.70;12.18;;;;;;;9.38;55.68;100084.59;2252653;78;29066;-65
2021/10/31 03:10:09;;;;;;;18.23;12.82;;;;;;;9.31;55.76;100083.14;2252986;79;31935;-64
2021/10/31 03:13:11;;;;;;;18.85;11.70;;;;;;;9.23;55.65;100078.17;2253013;78;32949;-66
2021/10/31 03:16:13;;;;;;;18.55;11.57;;;;;;;9.16;55.77;100077.59;2249429;78;29510;-65
2021/10/31 03:19:14;;;;;;;19.70;11.75;;;;;;;9.12;55.88;100089.36;2253082;78;27627;-65
2021/10/31 03:22:16;;;;;;;19.27;12.30;;;;;;;9.05;56.08;100093.28;2248233;79;29013;-65
2021/10/31 03:25:18;;;;;;;22.05;13.25;;;;;;;9.02;56.19;100107.63;2208342;80;31147;-64
2021/10/31 03:28:21;;;;;;;20.40;13.22;;;;;;;8.97;56.48;100109.18;2208321;79;34212;-66
2021/10/31 03:31:23;;;;;;;20.72;12.50;;;;;;;8.94;56.86;100107.98;2208386;80;30488;-64
2021/10/31 03:34:25;;;;;;;20.97;13.03;;;;;;;8.89;56.81;100111.36;2205549;78;27715;-62
2021/10/31 03:37:27;;;;;;;23.05;14.07;;;;;;;8.85;56.85;100095.55;2195879;81;29886;-65
2021/10/31 03:40:29;;;;;;;24.05;14.55;;;;;;;8.80;57.05;100097.06;2195730;81;32188;-64
2021/10/31 03:43:31;;;;;;;23.60;14.73;;;;;;;8.75;57.23;100105.78;2196453;81;34023;-65
2021/10/31 03:46:33;;;;;;;21.65;13.85;;;;;;;8.72;57.40;100115.27;2198003;80;29322;-63
2021/10/31 03:49:34;;;;;;;23.47;15.20;;;;;;;8.69;57.45;100112.23;2198195;80;27670;-62
2021/10/31 03:52:36;;;;;;;20.48;13.65;;;;;;;8.66;57.69;100119.93;2197710;81;29896;-65
2021/10/31 03:55:38;;;;;;;20.77;14.38;;;;;;;8.67;57.59;100126.16;2198663;79;30920;-63
2021/10/31 03:58:40;;;;;;;20.62;14.10;;;;;;;8.66;57.61;100119.93;2198440;80;33956;-63
2021/10/31 04:01:42;;;;;;;27.52;13.32;;;;;;;8.65;57.94;100120.86;2198244;80;29386;-63
2021/10/31 04:04:44;;;;;;;20.37;14.00;;;;;;;8.65;57.91;100124.02;2197989;80;27688;-62
2021/10/31 04:07:47;;;;;;;23.05;14.15;;;;;;;8.64;57.90;100128.47;2199672;79;28859;-62
2021/10/31 04:10:49;;;;;;;21.12;13.45;;;;;;;8.63;57.98;100129.41;2196406;79;31168;-60
2021/10/31 04:13:51;;;;;;;21.40;14.90;;;;;;;8.62;57.98;100133.49;2198412;80;33533;-64
2021/10/31 04:16:53;;;;;;;26.25;15.03;;;;;;;8.57;58.18;100130.15;2198318;81;30231;-61
2021/10/31 04:19:56;;;;;;;23.10;15.98;;;;;;;8.53;58.17;100129.88;2198424;79;28291;-61
2021/10/31 04:22:59;;;;;;;31.62;20.75;;;;;;;8.49;58.29;100129.16;2198107;80;29912;-60
2021/10/31 04:26:01;;;;;;;29.72;18.80;;;;;;;8.44;58.69;100129.33;2203687;80;30800;-61
2021/10/31 04:29:03;;;;;;;23.95;15.45;;;;;;;8.40;58.92;100126.38;2204176;80;33407;-61
2021/10/31 04:32:06;;;;;;;28.95;14.30;;;;;;;8.37;59.14;100125.17;2181608;80;29690;-62
2021/10/31 04:35:10;;;;;;;20.35;14.55;;;;;;;8.38;59.47;100124.24;2161664;82;27710;-62
2021/10/31 04:38:34;;;;;;;25.12;14.80;;;;;;;8.41;59.54;100116.59;2159814;80;28705;-60
2021/10/31 04:41:16;;;;;;;21.10;13.20;;;;;;;8.45;59.49;100130.18;2158629;82;31491;-64
2021/10/31 04:44:17;;;;;;;19.55;13.98;;;;;;;8.50;59.39;100138.45;2161666;82;34170;-63
2021/10/31 04:47:19;;;;;;;19.98;14.00;;;;;;;8.52;59.53;100130.36;2162097;82;29671;-64
2021/10/31 04:50:21;;;;;;;23.60;14.60;;;;;;;8.56;59.84;100124.41;2162580;80;27700;-65
2021/10/31 04:53:22;;;;;;;23.02;13.95;;;;;;;8.65;59.92;100124.87;2201607;80;29594;-64
2021/10/31 04:56:24;;;;;;;23.07;16.15;;;;;;;8.75;59.84;100123.14;2201412;80;31363;-64
2021/10/31 04:59:27;;;;;;;22.65;15.10;;;;;;;8.83;59.68;100128.13;2201042;80;33834;-65
2021/10/31 05:02:29;;;;;;;24.27;14.58;;;;;;;8.90;59.71;100134.47;2171823;80;29948;-65
2021/10/31 05:05:32;;;;;;;24.35;14.65;;;;;;;8.94;59.55;100132.03;2161851;82;27684;-66
2021/10/31 05:08:34;;;;;;;20.55;13.78;;;;;;;8.99;59.68;100129.63;2161845;82;28791;-65
2021/10/31 05:11:35;;;;;;;25.72;16.15;;;;;;;9.04;59.57;100131.14;2162067;82;32281;-64
2021/10/31 05:14:37;;;;;;;27.40;16.97;;;;;;;9.08;59.46;100138.57;2161693;82;33764;-64
2021/10/31 05:17:40;;;;;;;24.92;16.30;;;;;;;9.09;59.57;100129.62;2196479;80;29468;-65
2021/10/31 05:20:42;;;;;;;22.30;15.58;;;;;;;9.11;59.64;100131.27;2210681;80;27662;-64
2021/10/31 05:23:43;;;;;;;23.30;14.68;;;;;;;9.12;59.62;100134.80;2210722;79;29932;-64
2021/10/31 05:26:45;;;;;;;22.98;14.90;;;;;;;9.14;59.55;100137.41;2210782;80;31054;-64
2021/10/31 05:29:48;;;;;;;18.25;13.10;;;;;;;9.16;59.54;100138.21;2174176;80;33405;-64
2021/10/31 05:32:51;;;;;;;18.20;13.68;;;;;;;9.16;59.55;100137.73;2161609;82;29437;-65
2021/10/31 05:35:53;;;;;;;24.57;15.03;;;;;;;9.16;59.52;100135.55;2162020;82;27630;-64
2021/10/31 05:38:55;;;;;;;19.45;14.33;;;;;;;9.13;59.49;100137.87;2178692;80;28822;-64
2021/10/31 05:41:57;;;;;;;38.08;25.45;;;;;;;9.12;59.50;100143.70;2200974;80;31854;-63
2021/10/31 05:44:59;;;;;;;30.75;19.65;;;;;;;9.11;59.52;100141.08;2201422;80;33677;-63
2021/10/31 05:48:01;;;;;;;25.02;15.13;;;;;;;9.10;59.60;100146.91;2199637;80;29725;-64
2021/10/31 05:51:03;;;;;;;23.62;15.48;;;;;;;9.10;59.58;100142.89;2161898;82;27626;-63
2021/10/31 05:54:05;;;;;;;24.85;16.50;;;;;;;9.10;59.60;100149.58;2161713;82;28578;-65
2021/10/31 05:57:06;;;;;;;29.07;17.77;;;;;;;9.09;59.66;100145.66;2161743;82;31817;-64
2021/10/31 06:00:11;;;;;;;32.00;21.20;;;;;;;9.07;59.75;100144.36;2184854;80;34169;-64
2021/10/31 06:03:12;;;;;;;33.70;20.27;;;;;;;9.09;59.74;100147.84;2201267;80;29558;-64
2021/10/31 06:06:16;;;;;;;27.58;18.98;;;;;;;9.10;59.87;100151.39;2201541;80;27836;-63
2021/10/31 06:09:18;;;;;;;26.50;17.65;;;;;;;9.08;59.97;100149.26;2193320;80;29241;-63
2021/10/31 06:12:20;;;;;;;29.20;18.25;;;;;;;9.07;59.97;100157.73;2161382;82;31571;-62
2021/10/31 06:15:23;;;;;;;30.90;20.35;;;;;;;9.10;60.06;100160.75;2161722;82;33517;-61
2021/10/31 06:18:25;;;;;;;28.65;19.00;;;;;;;9.12;60.14;100162.41;2161641;82;29346;-60
2021/10/31 06:21:27;;;;;;;28.65;20.02;;;;;;;9.16;60.19;100163.13;2130753;80;27721;-61
2021/10/31 06:24:29;;;;;;;27.65;17.90;;;;;;;9.21;60.08;100168.25;2126874;82;29258;-61
2021/10/31 06:27:31;;;;;;;27.73;16.80;;;;;;;9.28;60.06;100178.58;2152926;82;32224;-62
2021/10/31 06:30:33;;;;;;;26.57;18.40;;;;;;;9.39;60.05;100181.25;2187490;79;34376;-63
2021/10/31 06:33:35;;;;;;;28.12;18.10;;;;;;;9.49;60.23;100185.21;2246448;78;29682;-63
2021/10/31 06:36:37;;;;;;;29.95;19.12;;;;;;;9.57;60.16;100185.73;2246644;78;27476;-60
2021/10/31 06:39:39;;;;;;;27.10;18.87;;;;;;;9.68;60.11;100187.88;2246291;78;29523;-63
2021/10/31 06:42:40;;;;;;;22.27;15.30;;;;;;;9.79;59.97;100193.20;2246187;79;30989;-61
2021/10/31 06:45:42;;;;;;;20.50;13.93;;;;;;;9.88;59.89;100189.61;2229791;79;33124;-61
2021/10/31 06:48:44;;;;;;;22.50;15.23;;;;;;;9.99;59.71;100189.09;2207554;80;29358;-62
2021/10/31 06:51:46;;;;;;;17.40;13.03;;;;;;;10.11;59.59;100192.09;2208072;80;27599;-63
2021/10/31 06:54:48;;;;;;;22.10;13.50;;;;;;;10.24;59.50;100197.22;2207267;80;29483;-60
2021/10/31 06:57:50;;;;;;;20.95;13.08;;;;;;;10.37;59.35;100194.80;2185046;81;31024;-61
2021/10/31 07:00:51;;;;;;;21.60;12.37;;;;;;;10.48;59.09;100193.81;2196219;81;34329;-63
2021/10/31 07:03:54;;;;;;;21.20;13.88;;;;;;;10.55;58.96;100190.83;2195882;81;29282;-62
2021/10/31 07:06:56;;;;;;;23.83;14.25;;;;;;;10.65;58.86;100190.73;2196557;81;27670;-60
2021/10/31 07:09:58;;;;;;;21.62;12.78;;;;;;;10.73;58.69;100195.70;2199774;80;29871;-64
2021/10/31 07:13:00;;;;;;;20.97;13.55;;;;;;;10.77;58.55;100196.79;2205095;80;32020;-61
2021/10/31 07:16:02;;;;;;;19.92;13.98;;;;;;;10.83;58.41;100200.98;2205401;79;33105;-61
2021/10/31 07:19:04;;;;;;;19.25;13.53;;;;;;;10.88;58.36;100200.25;2205107;80;30575;-62
2021/10/31 07:22:06;;;;;;;20.08;14.23;;;;;;;10.94;58.30;100192.35;2205726;79;27702;-60
2021/10/31 07:25:11;;;;;;;19.37;13.62;;;;;;;11.04;58.25;100200.32;2205790;80;29727;-60
2021/10/31 07:28:13;;;;;;;22.02;13.83;;;;;;;11.15;58.17;100195.73;2208298;80;31094;-61
2021/10/31 07:31:18;;;;;;;31.10;18.37;;;;;;;11.28;58.15;100189.69;2208108;80;33314;-61
2021/10/31 07:34:25;;;;;;;21.62;13.58;;;;;;;11.42;58.03;100179.07;2208402;80;29319;-60
2021/10/31 07:37:28;;;;;;;21.82;13.62;;;;;;;11.57;57.77;100177.83;2207265;80;27719;-60
2021/10/31 07:40:28;;;;;;;18.82;13.60;;;;;;;11.72;57.65;100182.33;2207868;80;29298;-61
2021/10/31 07:43:31;;;;;;;21.02;14.87;;;;;;;11.87;57.53;100181.95;2207680;80;32247;-61
2021/10/31 07:46:34;;;;;;;24.85;14.07;;;;;;;12.06;57.50;100179.09;2241245;79;33980;-63
2021/10/31 07:49:35;;;;;;;21.10;13.18;;;;;;;12.27;57.44;100174.28;2252358;78;30285;-62
2021/10/31 07:52:43;;;;;;;30.70;14.00;;;;;;;12.41;57.15;100172.13;2252937;78;27597;-60
2021/10/31 07:55:44;;;;;;;21.77;12.50;;;;;;;12.53;57.02;100170.54;2252532;79;29041;-63
2021/10/31 07:58:47;;;;;;;17.85;13.32;;;;;;;12.66;56.94;100177.86;2252424;79;32026;-61
2021/10/31 08:01:49;;;;;;;24.63;15.78;;;;;;;12.79;57.00;100166.73;2252709;79;33147;-61
2021/10/31 08:04:51;;;;;;;21.82;16.65;;;;;;;12.95;56.82;100172.05;2253002;78;30120;-62
2021/10/31 08:07:54;;;;;;;23.25;14.63;;;;;;;13.09;56.61;100160.91;2252725;79;27746;-60
2021/10/31 08:10:56;;;;;;;20.92;13.90;;;;;;;13.22;56.26;100163.20;2252868;78;29198;-62
2021/10/31 08:13:58;;;;;;;22.10;12.98;;;;;;;13.36;55.72;100155.62;2251688;78;31877;-62
2021/10/31 08:17:00;;;;;;;20.02;12.80;;;;;;;13.40;55.51;100145.52;2215098;79;33365;-63
2021/10/31 08:20:02;;;;;;;19.50;13.62;;;;;;;13.48;55.34;100140.55;2214477;80;30104;-64
2021/10/31 08:23:05;;;;;;;21.77;13.35;;;;;;;13.55;55.00;100139.17;2214524;80;27648;-65
2021/10/31 08:26:08;;;;;;;18.73;13.30;;;;;;;13.64;54.77;100134.55;2204651;80;28724;-64
2021/10/31 08:29:12;;;;;;;21.02;13.15;;;;;;;13.76;54.82;100142.78;2199488;80;31392;-64
2021/10/31 08:32:15;;;;;;;16.77;12.28;;;;;;;13.87;54.41;100143.43;2201608;80;32994;-64
2021/10/31 08:35:17;;;;;;;17.37;12.15;;;;;;;13.95;54.19;100143.77;2202162;80;29851;-65
2021/10/31 08:38:20;;;;;;;15.70;11.38;;;;;;;14.06;53.93;100137.20;2192143;80;27671;-63
2021/10/31 08:41:23;;;;;;;17.48;12.37;;;;;;;14.16;53.97;100134.73;2201736;80;29119;-68
2021/10/31 08:44:26;;;;;;;16.12;11.55;;;;;;;14.28;53.77;100126.30;2199328;80;30844;-60
2021/10/31 08:47:28;;;;;;;18.90;12.28;;;;;;;14.39;53.32;100125.11;2202062;80;34168;-61
2021/10/31 08:50:30;;;;;;;19.82;12.13;;;;;;;14.47;53.25;100127.73;2201423;80;29473;-61
2021/10/31 08:53:33;;;;;;;21.97;13.30;;;;;;;14.58;53.25;100126.03;2205798;80;27709;-62
2021/10/31 08:56:35;;;;;;;17.30;11.83;;;;;;;14.73;53.21;100117.88;2219625;80;29451;-63
2021/10/31 08:59:37;;;;;;;17.73;11.95;;;;;;;14.84;52.99;100120.67;2150071;82;31475;-63
2021/10/31 09:02:40;;;;;;;21.42;16.25;;;;;;;14.98;52.62;100119.70;2142439;82;34218;-63
2021/10/31 09:05:42;;;;;;;21.80;14.18;;;;;;;15.09;52.53;100118.06;2145417;82;30238;-62
2021/10/31 09:08:45;;;;;;;18.98;12.50;;;;;;;15.21;52.66;100109.11;2198213;80;27641;-62
2021/10/31 09:11:48;;;;;;;17.70;12.65;;;;;;;15.34;52.06;100110.41;2202240;79;29180;-62
2021/10/31 09:14:51;;;;;;;20.52;13.40;;;;;;;15.49;52.38;100117.38;2192173;80;31809;-63
2021/10/31 09:17:54;;;;;;;18.82;12.30;;;;;;;15.68;52.03;100109.27;2209618;80;32733;-63
2021/10/31 09:20:56;;;;;;;16.07;12.43;;;;;;;16.10;51.96;100098.97;2197197;80;30281;-62
2021/10/31 09:23:59;;;;;;;22.10;13.43;;;;;;;16.34;51.74;100091.79;2196807;80;27880;-58
2021/10/31 09:27:01;;;;;;;17.67;13.28;;;;;;;16.34;51.74;100091.79;2200266;80;28678;-62
2021/10/31 09:30:06;;;;;;;15.90;12.82;;;;;;;16.59;51.40;100085.80;2209053;80;31440;-63
2021/10/31 09:33:12;;;;;;;18.50;12.43;;;;;;;16.76;51.01;100076.38;2196961;80;33021;-60
2021/10/31 09:36:14;;;;;;;16.52;12.68;;;;;;;16.94;50.71;100080.80;2146813;82;30142;-61
2021/10/31 09:39:16;;;;;;;16.80;11.75;;;;;;;17.11;50.92;100074.92;2129686;82;27597;-62
2021/10/31 09:42:18;;;;;;;16.50;12.80;;;;;;;17.35;51.04;100074.40;2135851;82;29879;-62
2021/10/31 09:45:21;;;;;;;17.42;12.03;;;;;;;17.56;50.30;100069.92;2205878;80;30984;-61
2021/10/31 09:48:24;;;;;;;15.03;11.70;;;;;;;17.75;50.13;100069.25;2207234;80;33122;-61
2021/10/31 09:51:25;;;;;;;18.05;12.55;;;;;;;17.93;49.74;100067.33;2161004;81;29337;-61
2021/10/31 09:54:28;;;;;;;16.73;12.65;;;;;;;18.10;49.77;100077.27;2207426;80;27746;-63
2021/10/31 09:57:30;;;;;;;20.05;12.40;;;;;;;18.27;48.99;100073.98;2157302;82;29367;-63
2021/10/31 10:00:39;;;;;;;19.98;11.90;;;;;;;18.38;48.77;100069.83;2157884;82;32542;-63
2021/10/31 10:03:47;;;;;;;19.45;11.10;;;;;;;18.53;48.82;100065.45;2153949;82;33908;-61
2021/10/31 10:06:54;;;;;;;16.93;11.22;;;;;;;18.71;48.13;100058.90;2190398;80;29309;-65
2021/10/31 10:09:57;;;;;;;15.80;10.72;;;;;;;18.86;47.83;100049.03;2206003;80;27749;-62
2021/10/31 10:13:04;;;;;;;15.60;11.57;;;;;;;19.01;47.65;100046.86;2196437;80;28671;-65
2021/10/31 10:16:28;;;;;;;14.13;10.98;;;;;;;19.13;47.24;100047.11;2154948;81;31221;-65
2021/10/31 10:19:35;;;;;;;16.52;11.30;;;;;;;19.23;46.79;100041.70;2137747;82;33808;-64
2021/10/31 10:22:38;;;;;;;16.55;11.55;;;;;;;19.34;46.53;100036.14;2151582;82;30469;-64
2021/10/31 10:25:41;;;;;;;15.50;10.30;;;;;;;19.40;46.13;100028.81;2145708;82;27635;-63
2021/10/31 10:28:44;;;;;;;17.25;10.32;;;;;;;19.49;45.84;100031.18;2160710;82;28511;-64
2021/10/31 10:31:53;;;;;;;11.75;9.95;;;;;;;19.52;45.03;100025.47;2133570;82;31987;-63
2021/10/31 10:35:00;;;;;;;15.32;11.00;;;;;;;19.53;44.95;100017.65;2156389;82;33789;-63
2021/10/31 10:38:21;;;;;;;16.55;10.65;;;;;;;19.55;45.19;100015.66;2154547;82;30123;-61
2021/10/31 10:41:45;;;;;;;14.78;10.10;;;;;;;19.64;44.85;100017.17;2153087;82;27682;-64
2021/10/31 10:44:48;;;;;;;13.72;10.55;;;;;;;19.64;44.18;100011.22;2153687;82;28675;-63
2021/10/31 10:47:55;;;;;;;20.45;11.50;;;;;;;19.53;44.38;100012.73;2146888;82;31359;-60
2021/10/31 10:51:00;;;;;;;14.63;10.50;;;;;;;19.48;44.35;100006.37;2155591;82;33343;-62
2021/10/31 10:54:11;;;;;;;16.57;10.78;;;;;;;19.42;44.29;100010.52;2124161;82;29347;-62
2021/10/31 10:57:14;;;;;;;18.42;10.75;;;;;;;19.38;44.20;100002.77;2158580;82;27782;-60
2021/10/31 11:00:37;;;;;;;14.83;10.58;;;;;;;19.26;43.89;100000.69;2158184;82;29242;-62
2021/10/31 11:03:40;;;;;;;16.82;12.45;;;;;;;19.21;43.84;100000.25;2153888;82;32186;-64
2021/10/31 11:06:50;;;;;;;16.25;11.28;;;;;;;19.15;44.15;99989.45;2153066;82;29795;-62
2021/10/31 11:09:53;;;;;;;14.45;10.70;;;;;;;19.10;44.11;99985.80;2181804;80;29414;-64
2021/10/31 11:13:03;;;;;;;11.90;9.98;;;;;;;19.06;43.65;99984.35;2163820;81;27629;-68
2021/10/31 11:16:07;;;;;;;13.03;10.93;;;;;;;19.02;43.80;99977.98;2156404;82;28716;-64
2021/10/31 11:19:09;;;;;;;16.50;10.75;;;;;;;18.98;43.73;99980.09;2155999;82;31007;-63
2021/10/31 11:22:13;;;;;;;13.78;10.72;;;;;;;18.97;43.79;99972.95;2155924;82;32971;-65
2021/10/31 11:25:19;;;;;;;16.30;10.67;;;;;;;19.00;44.38;99968.61;2160717;82;29403;-67
2021/10/31 11:28:22;;;;;;;12.05;10.55;;;;;;;18.92;44.13;99939.41;2163838;81;27693;-67
2021/10/31 11:31:25;;;;;;;17.48;11.25;;;;;;;19.11;44.14;99963.05;2159325;82;29449;-64
2021/10/31 11:34:28;;;;;;;17.07;11.38;;;;;;;19.13;44.01;99961.05;2155811;82;31021;-62
2021/10/31 11:37:41;;;;;;;11.80;9.83;;;;;;;19.16;43.69;99955.86;2155536;82;34202;-62
2021/10/31 11:41:08;;;;;;;13.28;9.98;;;;;;;19.21;43.86;99952.72;2155001;82;28746;-63
2021/10/31 11:44:11;;;;;;;16.17;11.18;;;;;;;19.20;44.01;99950.48;2165304;80;27604;-61
2021/10/31 11:47:26;;;;;;;13.65;9.83;;;;;;;19.28;43.79;99947.06;2191785;81;28678;-68
2021/10/31 11:50:27;;;;;;;15.93;11.30;;;;;;;19.32;44.04;99947.66;2175757;81;27913;-61
2021/10/31 11:53:49;;;;;;;14.43;10.98;;;;;;;19.38;44.03;99937.56;2131003;82;33108;-65
2021/10/31 11:56:52;;;;;;;13.00;9.83;;;;;;;19.48;43.92;99937.09;2115484;84;29337;-63
2021/10/31 12:00:15;;;;;;;17.80;9.83;;;;;;;19.51;43.51;99930.50;2115228;83;27629;-63
2021/10/31 12:03:51;;;;;;;12.98;10.30;;;;;;;19.50;43.34;99921.50;2024571;86;29614;-63
2021/10/31 12:06:53;;;;;;;13.72;9.48;;;;;;;19.49;43.53;99918.43;2032228;86;31189;-64
2021/10/31 12:09:58;;;;;;;11.05;9.63;;;;;;;19.49;43.11;99917.55;2035256;87;34184;-66
2021/10/31 12:13:23;;;;;;;13.88;9.90;;;;;;;19.44;42.97;99912.05;2033733;87;30198;-66
2021/10/31 12:16:25;;;;;;;11.97;9.58;;;;;;;19.44;42.74;99912.56;2042567;87;27677;-68
2021/10/31 12:19:40;;;;;;;12.95;9.75;;;;;;;19.40;43.10;99909.77;2042676;87;29089;-73
2021/10/31 12:22:42;;;;;;;15.15;10.00;;;;;;;19.37;42.93;99908.69;2034511;86;31923;-63
2021/10/31 12:25:44;;;;;;;13.80;9.38;;;;;;;19.31;43.01;99906.05;2026625;86;33019;-64
2021/10/31 12:28:46;;;;;;;14.38;10.85;;;;;;;19.30;43.17;99899.41;2023295;86;29766;-66
2021/10/31 12:32:03;;;;;;;13.83;10.15;;;;;;;19.32;43.32;99896.89;2043902;87;27778;-66
2021/10/31 12:35:05;;;;;;;13.95;10.10;;;;;;;19.34;42.90;99890.83;2043466;87;29767;-67
2021/10/31 12:38:25;;;;;;;12.28;10.18;;;;;;;19.27;42.84;99899.20;2059890;84;31046;-65
2021/10/31 12:41:34;;;;;;;18.12;10.38;;;;;;;19.19;42.98;99890.90;2057890;85;33314;-65
2021/10/31 12:44:35;;;;;;;17.37;10.85;;;;;;;19.16;43.03;99897.48;2141412;82;29336;-65
2021/10/31 12:47:44;;;;;;;16.05;10.60;;;;;;;19.13;42.92;99891.81;2156366;82;27609;-65
2021/10/31 12:50:48;;;;;;;16.12;9.38;;;;;;;19.08;43.05;99891.41;2158446;82;29007;-66
2021/10/31 12:53:52;;;;;;;13.98;10.58;;;;;;;19.03;43.29;99881.97;2158213;82;30986;-66
2021/10/31 12:56:55;;;;;;;14.18;10.03;;;;;;;19.00;43.32;99884.45;2157699;82;34228;-65
2021/10/31 13:00:02;;;;;;;12.95;9.95;;;;;;;18.97;43.23;99884.24;2158047;82;29341;-65
2021/10/31 13:03:05;;;;;;;13.93;9.78;;;;;;;18.92;43.52;99874.78;2157959;82;27637;-66
2021/10/31 13:06:07;;;;;;;14.53;10.28;;;;;;;18.91;43.26;99874.42;2158297;82;28713;-65
2021/10/31 13:09:09;;;;;;;16.37;10.82;;;;;;;18.87;43.45;99871.62;2153826;82;31850;-67
2021/10/31 13:12:30;;;;;;;13.32;9.60;;;;;;;18.85;43.64;99862.76;2145996;82;34293;-65
2021/10/31 13:15:34;;;;;;;17.10;11.20;;;;;;;18.83;43.52;99860.20;2146385;82;29386;-65
2021/10/31 13:18:36;;;;;;;20.13;15.17;;;;;;;18.80;43.70;99855.88;2147867;82;27614;-65
2021/10/31 13:21:42;;;;;;;14.85;9.58;;;;;;;18.78;43.67;99855.67;2145768;83;28710;-65
2021/10/31 13:24:51;;;;;;;12.93;9.55;;;;;;;18.74;43.51;99848.81;2146081;82;31094;-65
2021/10/31 13:27:54;;;;;;;14.40;9.28;;;;;;;18.71;43.59;99855.38;2151071;82;32367;-66
2021/10/31 13:31:09;;;;;;;14.28;9.60;;;;;;;18.70;43.76;99851.47;2136311;82;30166;-65
2021/10/31 13:34:11;;;;;;;12.58;9.75;;;;;;;18.71;43.71;99859.94;2130694;82;27714;-64
2021/10/31 13:37:16;;;;;;;14.40;9.30;;;;;;;18.69;43.82;99849.23;2144643;81;30013;-67
2021/10/31 13:40:23;;;;;;;13.75;9.25;;;;;;;18.69;43.96;99847.87;2139325;82;27863;-66
2021/10/31 13:43:34;;;;;;;15.72;9.95;;;;;;;18.69;43.72;99842.45;2109057;83;33126;-64
2021/10/31 13:47:02;;;;;;;14.50;9.90;;;;;;;18.65;43.87;99834.23;2133030;83;29567;-64
2021/10/31 13:50:11;;;;;;;13.75;9.75;;;;;;;18.63;43.90;99834.86;2133043;83;27709;-66
2021/10/31 13:53:14;;;;;;;16.45;11.10;;;;;;;18.58;43.92;99831.73;2133056;83;29514;-66
2021/10/31 13:56:16;;;;;;;13.68;9.80;;;;;;;18.53;43.92;99834.88;2133403;83;31355;-66
2021/10/31 13:59:24;;;;;;;20.20;13.72;;;;;;;18.51;44.07;99835.50;2133083;83;33445;-64
2021/10/31 14:02:27;;;;;;;14.85;11.30;;;;;;;18.48;44.04;99833.06;2133040;83;29351;-65
2021/10/31 14:05:32;;;;;;;19.25;11.10;;;;;;;18.44;44.25;99837.92;2132799;83;27743;-66
2021/10/31 14:08:42;;;;;;;13.35;9.13;;;;;;;18.42;44.21;99832.25;2133045;83;28638;-66
2021/10/31 14:12:00;;;;;;;16.17;9.95;;;;;;;18.37;44.23;99832.67;2133019;83;31014;-67
2021/10/31 14:15:11;;;;;;;16.05;11.30;;;;;;;18.31;44.32;99827.80;2133153;82;32998;-66